Andiamo — WDE2131 — position and weather

sailwx.info

Track history (hours):
 
Tides and Currents Weather Stations Pressure Air Temp Water Temp Dewpoint Dewpoint Depression Visibility Wind Speed Wind Dir Waves Ship Positions

Andiamo

Owner: Briggs, Robert O, Newport Beach, CA. More information available from US FCC via Universal Licensing System.

Last reported at 2017-Dec-29 07:24 UTC. Time now 2018-Jan-21 20:51 UTC.
Position N 32°33' W 117°27'.
Warning: this ship's position is 23 days out of date.

Length 22 m.

Type: Pleasure craft. MMSI: 367320870.

Date/timePositionNaut miles runAvg speedWind from/ knotsBaromVisibWave heightAir tempDewpointWater temp
2017-Dec-29 07:24N 32°33' W 117°27'5 9.9
2017-Dec-29 06:55N 32°38' W 117°28'410.0
2017-Dec-29 06:30N 32°42' W 117°30'510.0
2017-Dec-29 06:00N 32°46' W 117°32'510.1
2017-Dec-29 05:30N 32°51' W 117°34'510.1
2017-Dec-29 05:00N 32°56' W 117°36'510.4
2017-Dec-29 04:30N 33°01' W 117°38'510.6
2017-Dec-29 04:00N 33°06' W 117°40'510.6
2017-Dec-29 03:30N 33°11' W 117°42'810.6
2017-Dec-29 02:46N 33°18' W 117°45'410.4
2017-Dec-29 02:25N 33°21' W 117°47'  
Track history (hours):
 
Tides and Currents Weather Stations Pressure Air Temp Water Temp Dewpoint Dewpoint Depression Visibility Wind Speed Wind Dir Waves Ship Positions

Andiamo

Owner: Briggs, Robert O, Newport Beach, CA. More information available from US FCC via Universal Licensing System.

Last reported at 2017-Dec-29 07:24 UTC. Time now 2018-Jan-21 20:51 UTC.
Position N 32°33' W 117°27'.
Warning: this ship's position is 23 days out of date.

Length 22 m.

Type: Pleasure craft. MMSI: 367320870.

Date/timePositionNaut miles runAvg speedWind from/ knotsBaromVisibWave heightAir tempDewpointWater temp
2017-Dec-29 07:24N 32°33' W 117°27'5 9.9
2017-Dec-29 06:55N 32°38' W 117°28'410.0
2017-Dec-29 06:30N 32°42' W 117°30'510.0
2017-Dec-29 06:00N 32°46' W 117°32'510.1
2017-Dec-29 05:30N 32°51' W 117°34'510.1
2017-Dec-29 05:00N 32°56' W 117°36'510.4
2017-Dec-29 04:30N 33°01' W 117°38'510.6
2017-Dec-29 04:00N 33°06' W 117°40'510.6
2017-Dec-29 03:30N 33°11' W 117°42'810.6
2017-Dec-29 02:46N 33°18' W 117°45'410.4
2017-Dec-29 02:25N 33°21' W 117°47'  

Dump ship's entire track history